Meishomaru — JD3044 — position and weather

sailwx.info

Track history (hours):
 
Tides and Currents Weather Stations Pressure Air Temp Water Temp Dewpoint Dewpoint Depression Visibility Wind Speed Wind Dir Waves Ship Positions

Meishomaru

Last reported at 2014-Sep-30 09:31 UTC. Time now 2014-Sep-30 13:57 UTC.
Position N 35°17' E 139°45'.

Length 68 m; draft 4 m.

Type: Tanker. MMSI: 431001216.

Date/timePositionNaut miles runAvg speedWind from/ knotsBaromVisibWave heightAir tempDewpointWater temp
2014-Sep-30 09:31N 35°17' E 139°45'9 9.8
2014-Sep-30 08:34N 35°26' E 139°46'10 8.9
2014-Sep-30 07:25N 35°33' E 139°55'  
2014-Sep-27 22:23N 35°29' E 139°56'0 0.2
2014-Sep-27 20:20N 35°29' E 139°56'7 9.6
2014-Sep-27 19:33N 35°25' E 139°48'1010.3
2014-Sep-27 18:33N 35°15' E 139°47'6 0.2
2014-Sep-26 09:33N 35°20' E 139°43'1111.1
2014-Sep-26 08:33N 35°29' E 139°50'2 0.1
2014-Sep-24 11:34N 35°27' E 139°50'1110.6
2014-Sep-24 10:33N 35°17' E 139°46'245 9.4
2014-Sep-23 08:33N 34°11' E 134°59'1210.7
2014-Sep-23 07:25N 34°23' E 135°01'1112.2
2014-Sep-23 06:33N 34°28' E 135°12'1211.8
2014-Sep-23 05:33N 34°33' E 135°25'1 0.1
2014-Sep-23 00:12N 34°32' E 135°25'3 4.5
2014-Sep-22 23:33N 34°33' E 135°22'0 0.3
2014-Sep-22 22:32N 34°32' E 135°21'0 0.0
2014-Sep-22 20:32N 34°32' E 135°21'0 0.0
2014-Sep-22 19:26N 34°32' E 135°21'0 0.0
2014-Sep-22 17:26N 34°32' E 135°21'0 0.0
2014-Sep-22 16:32N 34°32' E 135°21'0 0.0
2014-Sep-22 14:32N 34°32' E 135°21'0 0.0
2014-Sep-22 13:32N 34°32' E 135°21'0 0.0
2014-Sep-22 12:26N 34°32' E 135°21'0 0.0
2014-Sep-22 11:20N 34°32' E 135°21'0 0.0
2014-Sep-22 10:32N 34°32' E 135°21'0 0.0
2014-Sep-22 09:32N 34°32' E 135°21'0 0.0
2014-Sep-22 08:20N 34°32' E 135°21'0 0.0
2014-Sep-22 07:32N 34°32' E 135°21'0 0.0
2014-Sep-22 06:32N 34°32' E 135°21'0 0.0
2014-Sep-22 05:32N 34°32' E 135°21'0 0.0
2014-Sep-22 04:32N 34°32' E 135°21'0 0.0
2014-Sep-22 03:32N 34°32' E 135°21'0 0.0
2014-Sep-22 02:20N 34°32' E 135°21'0 0.0
2014-Sep-22 01:32N 34°32' E 135°21'0 0.0
2014-Sep-21 23:32N 34°32' E 135°21'0 0.0
2014-Sep-21 22:32N 34°32' E 135°21'0 0.0
2014-Sep-21 21:26N 34°32' E 135°21'0 0.0
2014-Sep-21 20:32N 34°32' E 135°21'0 0.0
2014-Sep-21 19:26N 34°32' E 135°21'0 0.0
2014-Sep-21 17:08N 34°32' E 135°21'0 0.0
2014-Sep-21 16:20N 34°32' E 135°21'0 0.0
2014-Sep-21 15:20N 34°32' E 135°21'0 0.0
2014-Sep-21 14:32N 34°32' E 135°21'0 0.0
2014-Sep-21 13:08N 34°32' E 135°21'0 0.0
2014-Sep-21 12:32N 34°32' E 135°21'0 0.0
2014-Sep-21 11:32N 34°32' E 135°21'0 0.0
2014-Sep-21 10:32N 34°32' E 135°21'0 0.0
2014-Sep-21 09:32N 34°32' E 135°21'0 0.0
2014-Sep-21 08:26N 34°32' E 135°21'8 9.3
2014-Sep-21 07:33N 34°28' E 135°13'1312.4
2014-Sep-21 06:32N 34°19' E 135°02'1110.7
2014-Sep-21 05:33N 34°09' E 135°00'  
Track history (hours):
 
Tides and Currents Weather Stations Pressure Air Temp Water Temp Dewpoint Dewpoint Depression Visibility Wind Speed Wind Dir Waves Ship Positions

Meishomaru

Last reported at 2014-Sep-30 09:31 UTC. Time now 2014-Sep-30 13:57 UTC.
Position N 35°17' E 139°45'.

Length 68 m; draft 4 m.

Type: Tanker. MMSI: 431001216.

Date/timePositionNaut miles runAvg speedWind from/ knotsBaromVisibWave heightAir tempDewpointWater temp
2014-Sep-30 09:31N 35°17' E 139°45'9 9.8
2014-Sep-30 08:34N 35°26' E 139°46'10 8.9
2014-Sep-30 07:25N 35°33' E 139°55'  
2014-Sep-27 22:23N 35°29' E 139°56'0 0.2
2014-Sep-27 20:20N 35°29' E 139°56'7 9.6
2014-Sep-27 19:33N 35°25' E 139°48'1010.3
2014-Sep-27 18:33N 35°15' E 139°47'6 0.2
2014-Sep-26 09:33N 35°20' E 139°43'1111.1
2014-Sep-26 08:33N 35°29' E 139°50'2 0.1
2014-Sep-24 11:34N 35°27' E 139°50'1110.6
2014-Sep-24 10:33N 35°17' E 139°46'245 9.4
2014-Sep-23 08:33N 34°11' E 134°59'1210.7
2014-Sep-23 07:25N 34°23' E 135°01'1112.2
2014-Sep-23 06:33N 34°28' E 135°12'1211.8
2014-Sep-23 05:33N 34°33' E 135°25'1 0.1
2014-Sep-23 00:12N 34°32' E 135°25'3 4.5
2014-Sep-22 23:33N 34°33' E 135°22'0 0.3
2014-Sep-22 22:32N 34°32' E 135°21'0 0.0
2014-Sep-22 20:32N 34°32' E 135°21'0 0.0
2014-Sep-22 19:26N 34°32' E 135°21'0 0.0
2014-Sep-22 17:26N 34°32' E 135°21'0 0.0
2014-Sep-22 16:32N 34°32' E 135°21'0 0.0
2014-Sep-22 14:32N 34°32' E 135°21'0 0.0
2014-Sep-22 13:32N 34°32' E 135°21'0 0.0
2014-Sep-22 12:26N 34°32' E 135°21'0 0.0
2014-Sep-22 11:20N 34°32' E 135°21'0 0.0
2014-Sep-22 10:32N 34°32' E 135°21'0 0.0
2014-Sep-22 09:32N 34°32' E 135°21'0 0.0
2014-Sep-22 08:20N 34°32' E 135°21'0 0.0
2014-Sep-22 07:32N 34°32' E 135°21'0 0.0
2014-Sep-22 06:32N 34°32' E 135°21'0 0.0
2014-Sep-22 05:32N 34°32' E 135°21'0 0.0
2014-Sep-22 04:32N 34°32' E 135°21'0 0.0
2014-Sep-22 03:32N 34°32' E 135°21'0 0.0
2014-Sep-22 02:20N 34°32' E 135°21'0 0.0
2014-Sep-22 01:32N 34°32' E 135°21'0 0.0
2014-Sep-21 23:32N 34°32' E 135°21'0 0.0
2014-Sep-21 22:32N 34°32' E 135°21'0 0.0
2014-Sep-21 21:26N 34°32' E 135°21'0 0.0
2014-Sep-21 20:32N 34°32' E 135°21'0 0.0
2014-Sep-21 19:26N 34°32' E 135°21'0 0.0
2014-Sep-21 17:08N 34°32' E 135°21'0 0.0
2014-Sep-21 16:20N 34°32' E 135°21'0 0.0
2014-Sep-21 15:20N 34°32' E 135°21'0 0.0
2014-Sep-21 14:32N 34°32' E 135°21'0 0.0
2014-Sep-21 13:08N 34°32' E 135°21'0 0.0
2014-Sep-21 12:32N 34°32' E 135°21'0 0.0
2014-Sep-21 11:32N 34°32' E 135°21'0 0.0
2014-Sep-21 10:32N 34°32' E 135°21'0 0.0
2014-Sep-21 09:32N 34°32' E 135°21'0 0.0
2014-Sep-21 08:26N 34°32' E 135°21'8 9.3
2014-Sep-21 07:33N 34°28' E 135°13'1312.4
2014-Sep-21 06:32N 34°19' E 135°02'1110.7
2014-Sep-21 05:33N 34°09' E 135°00'  

Dump ship's entire track history